createdAt,value
2019-04-04T00:01:16.683Z,14.40
2019-04-04T00:03:45.985Z,17.23
2019-04-04T00:06:15.247Z,13.03
2019-04-04T00:08:44.444Z,13.17
2019-04-04T00:11:13.681Z,12.33
2019-04-04T00:13:42.943Z,11.40
2019-04-04T00:16:15.601Z,15.17
2019-04-04T00:18:43.301Z,11.97
2019-04-04T00:21:12.567Z,13.73
2019-04-04T00:23:41.859Z,11.50
2019-04-04T00:26:12.949Z,11.50
2019-04-04T00:28:42.152Z,9.57
2019-04-04T00:31:11.427Z,12.30
2019-04-04T00:33:40.737Z,15.63
2019-04-04T00:36:10.003Z,10.60
2019-04-04T00:38:39.277Z,9.97
2019-04-04T00:41:08.573Z,10.37
2019-04-04T00:43:37.785Z,14.33
2019-04-04T00:46:06.993Z,14.70
2019-04-04T00:48:36.303Z,11.43
2019-04-04T00:51:07.688Z,12.43
2019-04-04T00:53:36.691Z,12.60
2019-04-04T00:56:05.981Z,12.57
2019-04-04T00:58:35.187Z,11.30
2019-04-04T01:01:04.708Z,11.37
2019-04-04T01:03:34.005Z,8.73
2019-04-04T01:06:03.726Z,12.23
2019-04-04T01:08:33.187Z,12.80
2019-04-04T01:11:02.461Z,12.37
2019-04-04T01:13:31.731Z,12.10
2019-04-04T01:16:02.460Z,13.13
2019-04-04T01:18:32.013Z,11.43
2019-04-04T01:21:01.226Z,11.83
2019-04-04T01:23:30.421Z,14.03
2019-04-04T01:26:03.076Z,10.43
2019-04-04T01:28:30.607Z,9.63
2019-04-04T01:30:59.847Z,11.10
2019-04-04T01:33:29.084Z,13.53
2019-04-04T01:35:58.295Z,14.90
2019-04-04T01:38:29.097Z,10.87
2019-04-04T01:40:58.447Z,10.43
2019-04-04T01:43:27.642Z,10.50
2019-04-04T01:45:56.857Z,13.67
2019-04-04T01:48:26.295Z,13.43
2019-04-04T01:50:55.360Z,15.07
2019-04-04T01:53:24.525Z,12.70
2019-04-04T01:55:53.798Z,12.83
2019-04-04T01:58:24.955Z,13.23
2019-04-04T02:00:54.157Z,13.90
2019-04-04T02:03:23.437Z,12.10
2019-04-04T02:05:52.505Z,14.03
2019-04-04T02:08:21.634Z,10.63
2019-04-04T02:10:50.916Z,13.57
2019-04-04T02:13:23.216Z,11.53
2019-04-04T02:15:52.432Z,15.03
2019-04-04T02:18:23.301Z,11.17
2019-04-04T02:20:52.442Z,12.43
2019-04-04T02:23:21.563Z,13.63
2019-04-04T02:25:50.734Z,10.23
2019-04-04T02:28:19.925Z,10.40
2019-04-04T02:30:49.353Z,14.83
2019-04-04T02:33:18.657Z,14.40
2019-04-04T02:35:48.052Z,15.10
2019-04-04T02:38:17.175Z,11.00
2019-04-04T02:40:46.411Z,12.23
2019-04-04T02:43:15.821Z,9.97
2019-04-04T02:45:45.009Z,14.17
2019-04-04T02:48:14.239Z,10.97
2019-04-04T02:50:43.442Z,11.37
2019-04-04T02:53:13.099Z,9.77
2019-04-04T02:55:42.256Z,11.33
2019-04-04T02:58:15.086Z,12.93
2019-04-04T03:00:42.406Z,9.50
2019-04-04T03:03:11.666Z,10.47
2019-04-04T03:05:41.001Z,9.43
2019-04-04T03:08:10.190Z,11.03
2019-04-04T03:10:39.436Z,11.47
2019-04-04T03:13:08.566Z,11.07
2019-04-04T03:15:41.371Z,12.27
2019-04-04T03:18:08.833Z,9.10
2019-04-04T03:20:38.015Z,13.33
2019-04-04T03:23:07.087Z,10.53
2019-04-04T03:25:36.579Z,10.43
2019-04-04T03:28:05.775Z,11.50
2019-04-04T03:30:34.943Z,11.20
2019-04-04T03:33:04.195Z,11.50
2019-04-04T03:35:33.408Z,12.17
2019-04-04T03:38:02.597Z,9.97
2019-04-04T03:40:31.810Z,16.03
2019-04-04T03:43:00.873Z,12.40
2019-04-04T03:45:29.927Z,11.17
2019-04-04T03:47:59.096Z,9.33
2019-04-04T03:50:30.215Z,13.07
2019-04-04T03:52:59.148Z,8.63
2019-04-04T03:55:28.672Z,12.37
2019-04-04T03:57:58.136Z,12.60
2019-04-04T04:00:32.894Z,13.53
2019-04-04T04:03:02.112Z,16.40
2019-04-04T04:05:35.691Z,12.47
2019-04-04T04:08:03.282Z,11.73
2019-04-04T04:10:33.720Z,10.47
2019-04-04T04:13:03.314Z,11.87
2019-04-04T04:15:32.420Z,11.20
2019-04-04T04:18:01.556Z,12.17
2019-04-04T04:20:30.820Z,12.27
2019-04-04T04:23:00.467Z,13.70
2019-04-04T04:25:29.580Z,10.93
2019-04-04T04:28:02.765Z,10.93
2019-04-04T04:30:29.988Z,10.77
2019-04-04T04:32:59.162Z,9.43
2019-04-04T04:35:28.356Z,13.53
2019-04-04T04:37:57.507Z,10.80
2019-04-04T04:40:26.634Z,12.33
2019-04-04T04:42:59.810Z,12.07
2019-04-04T04:45:26.782Z,13.07
2019-04-04T04:47:57.288Z,16.87
2019-04-04T04:50:26.660Z,10.63
2019-04-04T04:52:55.833Z,9.97
2019-04-04T04:55:27.227Z,11.47
2019-04-04T04:57:56.679Z,14.60
2019-04-04T05:00:27.940Z,12.23
2019-04-04T05:02:57.179Z,12.30
2019-04-04T05:05:26.384Z,13.77
2019-04-04T05:07:55.551Z,14.90
2019-04-04T05:10:24.776Z,15.07
2019-04-04T05:12:54.001Z,14.80
2019-04-04T05:15:23.141Z,16.83
2019-04-04T05:17:52.307Z,12.93
2019-04-04T05:20:23.131Z,14.90
2019-04-04T05:22:52.323Z,12.07
2019-04-04T05:25:21.521Z,11.57
2019-04-04T05:27:50.592Z,13.10
2019-04-04T05:30:20.426Z,14.03
2019-04-04T05:32:52.086Z,16.27
2019-04-04T05:35:20.835Z,15.20
2019-04-04T05:37:50.020Z,13.20
2019-04-04T05:40:19.304Z,15.73
2019-04-04T05:42:48.513Z,11.63
2019-04-04T05:45:17.747Z,13.50
2019-04-04T05:47:46.823Z,13.33
2019-04-04T05:50:16.518Z,11.40
2019-04-04T05:52:45.870Z,17.10
2019-04-04T05:55:15.061Z,14.17
2019-04-04T05:57:44.275Z,18.63
2019-04-04T06:00:14.781Z,15.20
2019-04-04T06:02:44.059Z,14.27
2019-04-04T06:05:13.763Z,15.93
2019-04-04T06:07:42.892Z,12.47
2019-04-04T06:10:12.567Z,15.20
2019-04-04T06:12:41.703Z,13.67
2019-04-04T06:15:11.057Z,16.77
2019-04-04T06:17:40.258Z,13.83
2019-04-04T06:20:10.164Z,12.63
2019-04-04T06:22:39.406Z,13.13
2019-04-04T06:25:08.726Z,11.10
2019-04-04T06:27:39.927Z,17.10
2019-04-04T06:30:08.996Z,12.80
2019-04-04T06:32:40.822Z,13.50
2019-04-04T06:35:13.325Z,12.50
2019-04-04T06:37:46.438Z,13.97
2019-04-04T06:40:17.292Z,15.30
2019-04-04T06:42:47.947Z,18.87
2019-04-04T06:45:17.112Z,13.53
2019-04-04T06:47:47.950Z,14.53
2019-04-04T06:50:20.141Z,13.17
2019-04-04T06:52:52.453Z,13.37
2019-04-04T06:55:21.669Z,17.27
2019-04-04T06:57:53.983Z,13.53
2019-04-04T07:00:24.792Z,14.57
2019-04-04T07:02:56.070Z,12.70
2019-04-04T07:05:27.228Z,14.77
2019-04-04T07:07:56.400Z,14.37
2019-04-04T07:10:29.083Z,12.17
2019-04-04T07:13:14.568Z,14.53
2019-04-04T07:15:31.417Z,16.43
2019-04-04T07:18:00.479Z,11.13
2019-04-04T07:20:33.203Z,18.17
2019-04-04T07:23:04.170Z,13.97
2019-04-04T07:25:35.865Z,13.00
2019-04-04T07:28:05.429Z,16.67
2019-04-04T07:30:36.065Z,13.40
2019-04-04T07:33:05.284Z,19.00
2019-04-04T07:35:36.176Z,13.70
2019-04-04T07:38:05.796Z,13.93
2019-04-04T07:40:37.179Z,14.20
2019-04-04T07:43:08.498Z,12.93
2019-04-04T07:45:36.980Z,16.37
2019-04-04T07:48:06.116Z,15.57
2019-04-04T07:50:35.317Z,14.60
2019-04-04T07:53:05.176Z,16.60
2019-04-04T07:55:34.660Z,15.13
2019-04-04T07:58:03.833Z,14.20
2019-04-04T08:00:35.212Z,18.37
2019-04-04T08:03:06.045Z,15.57
2019-04-04T08:05:35.259Z,13.20
2019-04-04T08:08:06.133Z,17.43
2019-04-04T08:10:36.976Z,14.80
2019-04-04T08:13:07.721Z,15.30
2019-04-04T08:15:38.601Z,15.83
2019-04-04T08:18:09.423Z,14.80
2019-04-04T08:20:38.726Z,17.03
2019-04-04T08:23:07.961Z,14.27
2019-04-04T08:25:37.099Z,16.13
2019-04-04T08:28:06.308Z,18.57
2019-04-04T08:30:35.559Z,13.47
2019-04-04T08:33:08.268Z,13.60
2019-04-04T08:35:39.101Z,15.30
2019-04-04T08:38:16.889Z,14.27
2019-04-04T08:40:47.730Z,15.07
2019-04-04T08:43:20.051Z,14.30
2019-04-04T08:45:49.106Z,18.13
2019-04-04T08:48:19.695Z,16.53
2019-04-04T08:50:50.555Z,12.37
2019-04-04T08:53:19.769Z,14.23
2019-04-04T08:55:51.566Z,11.87
2019-04-04T08:58:24.905Z,15.07
2019-04-04T09:00:58.173Z,11.90
2019-04-04T09:03:27.379Z,15.33
2019-04-04T09:05:58.048Z,13.37
2019-04-04T09:08:27.375Z,16.10
2019-04-04T09:10:57.615Z,16.90
2019-04-04T09:13:28.408Z,15.83
2019-04-04T09:15:57.705Z,15.60
2019-04-04T09:18:26.760Z,14.60
2019-04-04T09:20:55.941Z,15.60
2019-04-04T09:23:25.075Z,15.07
2019-04-04T09:26:05.074Z,11.17
2019-04-04T09:28:28.171Z,14.33
2019-04-04T09:30:57.283Z,13.70
2019-04-04T09:33:28.104Z,13.07
2019-04-04T09:35:57.351Z,11.90
2019-04-04T09:38:29.016Z,12.43
2019-04-04T09:40:57.463Z,11.67
2019-04-04T09:43:26.707Z,12.03
2019-04-04T09:45:55.893Z,10.60
2019-04-04T09:48:26.659Z,10.80
2019-04-04T09:50:55.834Z,10.37
2019-04-04T09:53:26.707Z,13.40
2019-04-04T09:55:55.833Z,14.67
2019-04-04T09:58:25.078Z,14.90
2019-04-04T10:00:54.633Z,14.10
2019-04-04T10:03:25.821Z,11.83
2019-04-04T10:05:56.002Z,13.13
2019-04-04T10:08:25.204Z,16.27
2019-04-04T10:10:56.005Z,15.10
2019-04-04T10:13:25.165Z,13.43
2019-04-04T10:15:56.081Z,14.50
2019-04-04T10:18:28.939Z,12.87
2019-04-04T10:21:11.194Z,13.37
2019-04-04T10:23:35.908Z,12.47
2019-04-04T10:26:06.615Z,12.63
2019-04-04T10:28:36.116Z,14.63
2019-04-04T10:31:08.687Z,13.43
2019-04-04T10:33:42.378Z,11.77
2019-04-04T10:36:14.887Z,14.03
2019-04-04T10:38:44.452Z,13.13
2019-04-04T10:41:15.184Z,11.10
2019-04-04T10:43:44.440Z,14.87
2019-04-04T10:46:13.626Z,11.20
2019-04-04T10:48:45.549Z,14.20
2019-04-04T10:51:14.758Z,11.00
2019-04-04T10:53:43.823Z,12.30
2019-04-04T10:56:13.063Z,13.30
2019-04-04T10:58:45.387Z,15.83
2019-04-04T11:01:16.067Z,13.83
2019-04-04T11:03:47.938Z,11.70
2019-04-04T11:06:17.146Z,13.33
2019-04-04T11:08:46.309Z,12.27
2019-04-04T11:11:15.452Z,13.77
2019-04-04T11:13:44.690Z,11.23
2019-04-04T11:16:13.945Z,13.77
2019-04-04T11:18:43.422Z,11.70
2019-04-04T11:21:12.733Z,15.20
2019-04-04T11:23:42.095Z,14.40
2019-04-04T11:26:11.347Z,13.20
2019-04-04T11:28:40.560Z,17.93
2019-04-04T11:31:10.231Z,13.83
2019-04-04T11:33:39.506Z,11.63
2019-04-04T11:36:08.648Z,11.20
2019-04-04T11:38:37.867Z,13.27
2019-04-04T11:41:07.173Z,14.20
2019-04-04T11:43:40.125Z,11.13
2019-04-04T11:46:09.356Z,14.20
2019-04-04T11:48:38.730Z,13.17
2019-04-04T11:51:10.339Z,13.17
2019-04-04T11:53:41.255Z,12.20
2019-04-04T11:56:10.406Z,12.37
2019-04-04T11:58:40.980Z,14.27
2019-04-04T12:01:14.755Z,11.80
2019-04-04T12:03:46.409Z,10.60
2019-04-04T12:06:17.104Z,13.20
2019-04-04T12:08:46.288Z,19.47
2019-04-04T12:11:15.821Z,12.40
2019-04-04T12:13:45.031Z,12.00
2019-04-04T12:16:15.921Z,11.13
2019-04-04T12:18:45.137Z,11.90
2019-04-04T12:21:15.994Z,14.33
2019-04-04T12:23:45.038Z,11.60
2019-04-04T12:26:14.757Z,10.03
2019-04-04T12:28:43.986Z,9.93
2019-04-04T12:31:13.310Z,12.07
2019-04-04T12:33:42.470Z,11.10
2019-04-04T12:36:24.134Z,10.77
2019-04-04T12:38:43.961Z,13.77
2019-04-04T12:41:15.198Z,14.10
2019-04-04T12:43:46.002Z,10.30
2019-04-04T12:46:15.809Z,16.40
2019-04-04T12:48:47.945Z,12.77
2019-04-04T12:51:20.228Z,11.87
2019-04-04T12:53:50.853Z,11.87
2019-04-04T12:56:22.070Z,15.23
2019-04-04T12:58:53.283Z,12.07
2019-04-04T13:01:23.851Z,13.47
2019-04-04T13:03:55.370Z,10.30
2019-04-04T13:06:26.204Z,10.07
2019-04-04T13:08:55.469Z,11.00
2019-04-04T13:11:24.647Z,13.67
2019-04-04T13:13:55.513Z,13.63
2019-04-04T13:16:27.843Z,10.93
2019-04-04T13:18:57.095Z,13.27
2019-04-04T13:21:27.810Z,11.77
2019-04-04T13:23:57.062Z,9.83
2019-04-04T13:26:27.862Z,13.07
2019-04-04T13:29:00.143Z,10.63
2019-04-04T13:31:29.490Z,13.20
2019-04-04T13:33:58.604Z,12.70
2019-04-04T13:36:29.301Z,16.60
2019-04-04T13:39:00.160Z,13.90
2019-04-04T13:41:31.076Z,11.10
2019-04-04T13:44:00.230Z,13.27
2019-04-04T13:46:29.497Z,10.40
2019-04-04T13:49:01.256Z,12.80
2019-04-04T13:51:32.289Z,10.83
2019-04-04T13:54:04.425Z,13.07
2019-04-04T13:56:36.686Z,12.27
2019-04-04T13:59:10.014Z,12.23
2019-04-04T14:01:42.934Z,11.27
2019-04-04T14:04:13.928Z,11.13
2019-04-04T14:06:43.062Z,11.43
2019-04-04T14:09:14.013Z,11.73
2019-04-04T14:11:44.790Z,14.17
2019-04-04T14:14:13.855Z,14.23
2019-04-04T14:16:44.148Z,11.67
2019-04-04T14:19:15.100Z,11.83
2019-04-04T14:21:44.948Z,12.57
2019-04-04T14:24:14.534Z,15.00
2019-04-04T14:26:46.090Z,17.63
2019-04-04T14:29:27.192Z,13.07
2019-04-04T14:31:49.945Z,12.67
2019-04-04T14:34:20.627Z,10.70
2019-04-04T14:36:49.944Z,12.03
2019-04-04T14:39:20.127Z,14.77
2019-04-04T14:41:49.447Z,12.67
2019-04-04T14:44:21.428Z,12.50
2019-04-04T14:46:50.620Z,13.40
2019-04-04T14:49:20.126Z,11.23
2019-04-04T14:51:49.377Z,11.17
2019-04-04T14:54:19.996Z,14.17
2019-04-04T14:56:49.269Z,14.30
2019-04-04T14:59:19.810Z,14.90
2019-04-04T15:01:48.949Z,13.17
2019-04-04T15:04:19.724Z,13.10
2019-04-04T15:06:48.969Z,16.30
2019-04-04T15:09:21.547Z,17.30
2019-04-04T15:11:52.480Z,12.70
2019-04-04T15:14:23.390Z,14.57
2019-04-04T15:16:54.244Z,15.10
2019-04-04T15:19:24.958Z,15.37
2019-04-04T15:21:56.859Z,13.87
2019-04-04T15:24:27.618Z,13.17
2019-04-04T15:26:58.481Z,18.80
2019-04-04T15:29:27.720Z,22.77
2019-04-04T15:32:00.119Z,15.57
2019-04-04T15:34:29.375Z,21.37
2019-04-04T15:37:00.288Z,17.30
2019-04-04T15:39:29.581Z,14.97
2019-04-04T15:42:00.417Z,14.47
2019-04-04T15:44:31.261Z,18.10
2019-04-04T15:47:02.360Z,17.13
2019-04-04T15:49:33.961Z,16.80
2019-04-04T15:52:05.788Z,15.50
2019-04-04T15:54:34.930Z,14.20
2019-04-04T15:57:04.242Z,15.47
2019-04-04T15:59:36.511Z,15.53
2019-04-04T16:02:07.371Z,12.57
2019-04-04T16:04:38.233Z,20.87
2019-04-04T16:07:09.285Z,14.73
2019-04-04T16:09:38.498Z,19.83
2019-04-04T16:12:09.351Z,15.00
2019-04-04T16:14:40.034Z,16.00
2019-04-04T16:17:11.955Z,17.93
2019-04-04T16:19:42.491Z,16.60
2019-04-04T16:22:13.154Z,17.33
2019-04-04T16:24:42.298Z,18.77
2019-04-04T16:27:13.167Z,18.63
2019-04-04T16:29:45.536Z,18.07
2019-04-04T16:32:16.651Z,15.00
2019-04-04T16:34:45.806Z,17.30
2019-04-04T16:37:14.983Z,15.63
2019-04-04T16:39:45.763Z,20.40
2019-04-04T16:42:19.538Z,21.97
2019-04-04T16:44:50.414Z,15.93
2019-04-04T16:47:21.199Z,18.80
2019-04-04T16:49:50.593Z,20.33
2019-04-04T16:52:23.104Z,19.83
2019-04-04T16:54:53.975Z,18.27
2019-04-04T16:57:26.173Z,22.80
2019-04-04T16:59:56.253Z,21.37
2019-04-04T17:02:25.442Z,22.50
2019-04-04T17:04:56.148Z,21.47
2019-04-04T17:07:26.891Z,21.53
2019-04-04T17:09:58.620Z,20.60
2019-04-04T17:12:27.909Z,20.63
2019-04-04T17:14:58.603Z,25.77
2019-04-04T17:17:27.819Z,19.10
2019-04-04T17:19:58.513Z,18.27
2019-04-04T17:22:30.657Z,20.03
2019-04-04T17:25:03.083Z,18.47
2019-04-04T17:27:32.293Z,19.53
2019-04-04T17:30:01.551Z,21.87
2019-04-04T17:32:33.936Z,23.17
2019-04-04T17:35:06.394Z,23.97
2019-04-04T17:37:37.133Z,21.17
2019-04-04T17:40:09.760Z,18.73
2019-04-04T17:42:39.039Z,20.23
2019-04-04T17:45:10.360Z,19.47
2019-04-04T17:47:39.885Z,17.33
2019-04-04T17:50:11.253Z,18.07
2019-04-04T17:52:43.646Z,17.63
2019-04-04T17:55:19.871Z,19.00
2019-04-04T17:57:53.129Z,20.20
2019-04-04T18:00:25.312Z,14.63
2019-04-04T18:02:55.650Z,18.13
2019-04-04T18:05:26.347Z,18.27
2019-04-04T18:07:55.549Z,16.30
2019-04-04T18:10:24.625Z,14.50
2019-04-04T18:12:53.930Z,13.93
2019-04-04T18:15:24.769Z,19.47
2019-04-04T18:17:56.778Z,17.43
2019-04-04T18:20:26.180Z,17.27
2019-04-04T18:22:56.790Z,14.63
2019-04-04T18:25:25.981Z,14.57
2019-04-04T18:27:55.082Z,15.57
2019-04-04T18:30:24.407Z,13.73
2019-04-04T18:32:53.495Z,16.83
2019-04-04T18:35:23.168Z,19.00
2019-04-04T18:37:52.966Z,14.33
2019-04-04T18:40:22.286Z,17.00
2019-04-04T18:42:53.653Z,18.40
2019-04-04T18:45:22.538Z,13.90
2019-04-04T18:47:51.694Z,16.67
2019-04-04T18:50:21.902Z,18.03
2019-04-04T18:52:51.185Z,20.77
2019-04-04T18:55:20.590Z,15.20
2019-04-04T18:57:49.994Z,17.30
2019-04-04T19:00:19.403Z,17.53
2019-04-04T19:02:48.616Z,17.33
2019-04-04T19:05:17.948Z,15.33
2019-04-04T19:07:47.232Z,17.07
2019-04-04T19:10:17.068Z,14.47
2019-04-04T19:12:46.619Z,15.03
2019-04-04T19:15:16.425Z,15.00
2019-04-04T19:17:45.742Z,16.53
2019-04-04T19:20:15.574Z,16.07
2019-04-04T19:22:44.848Z,16.90
2019-04-04T19:25:14.507Z,14.27
2019-04-04T19:27:44.010Z,19.17
2019-04-04T19:30:13.856Z,16.17
2019-04-04T19:32:43.219Z,18.70
2019-04-04T19:35:13.246Z,17.40
2019-04-04T19:37:42.551Z,16.53
2019-04-04T19:40:12.466Z,18.30
2019-04-04T19:42:41.783Z,19.33
2019-04-04T19:45:11.521Z,17.83
2019-04-04T19:47:40.726Z,19.53
2019-04-04T19:50:13.951Z,19.23
2019-04-04T19:52:43.183Z,20.87
2019-04-04T19:55:12.858Z,19.03
2019-04-04T19:57:42.224Z,20.97
2019-04-04T20:00:12.443Z,17.80
2019-04-04T20:02:43.943Z,21.23
2019-04-04T20:05:12.942Z,21.33
2019-04-04T20:07:42.331Z,15.20
2019-04-04T20:10:12.354Z,19.20
2019-04-04T20:12:41.685Z,16.60
2019-04-04T20:15:11.292Z,16.27
2019-04-04T20:17:40.614Z,16.93
2019-04-04T20:20:11.361Z,14.83
2019-04-04T20:22:40.668Z,17.60
2019-04-04T20:25:09.886Z,16.27
2019-04-04T20:27:39.487Z,17.80
2019-04-04T20:30:09.914Z,18.00
2019-04-04T20:32:39.209Z,18.77
2019-04-04T20:35:11.497Z,14.43
2019-04-04T20:37:40.745Z,13.63
2019-04-04T20:40:10.565Z,13.00
2019-04-04T20:42:39.881Z,13.17
2019-04-04T20:45:10.881Z,13.63
2019-04-04T20:47:40.053Z,15.43
2019-04-04T20:50:09.587Z,14.20
2019-04-04T20:52:38.844Z,12.70
2019-04-04T20:55:09.915Z,14.27
2019-04-04T20:57:41.212Z,15.53
2019-04-04T21:00:12.743Z,15.80
2019-04-04T21:02:41.964Z,14.53
2019-04-04T21:05:11.757Z,11.63
2019-04-04T21:07:42.896Z,16.73
2019-04-04T21:10:16.678Z,14.40
2019-04-04T21:12:45.924Z,12.83
2019-04-04T21:15:17.101Z,14.93
2019-04-04T21:17:46.328Z,14.33
2019-04-04T21:20:17.046Z,12.83
2019-04-04T21:22:46.278Z,12.23
2019-04-04T21:25:16.869Z,12.13
2019-04-04T21:27:49.592Z,14.23
2019-04-04T21:30:20.713Z,14.63
2019-04-04T21:32:49.997Z,13.33
2019-04-04T21:35:22.484Z,14.43
2019-04-04T21:37:51.843Z,12.90
2019-04-04T21:40:22.731Z,17.87
2019-04-04T21:42:56.591Z,16.20
2019-04-04T21:45:27.483Z,14.97
2019-04-04T21:47:56.666Z,16.73
2019-04-04T21:50:27.831Z,15.63
2019-04-04T21:52:57.032Z,14.57
2019-04-04T21:55:29.355Z,13.03
2019-04-04T21:57:58.905Z,13.07
2019-04-04T22:00:35.664Z,14.97
2019-04-04T22:03:07.975Z,12.90
2019-04-04T22:05:37.279Z,21.33
2019-04-04T22:08:09.556Z,13.90
2019-04-04T22:10:38.781Z,12.17
2019-04-04T22:13:08.028Z,15.53
2019-04-04T22:15:40.002Z,11.67
2019-04-04T22:18:09.272Z,15.40
2019-04-04T22:20:41.615Z,12.27
2019-04-04T22:23:12.402Z,12.83
2019-04-04T22:25:42.664Z,12.70
2019-04-04T22:28:13.997Z,12.27
2019-04-04T22:30:48.368Z,13.90
2019-04-04T22:33:20.504Z,15.37
2019-04-04T22:35:52.685Z,13.03
2019-04-04T22:38:27.595Z,13.43
2019-04-04T22:40:58.396Z,13.03
2019-04-04T22:43:28.856Z,14.57
2019-04-04T22:45:57.983Z,12.67
2019-04-04T22:48:29.516Z,12.20
2019-04-04T22:50:59.056Z,10.53
2019-04-04T22:53:29.999Z,11.80
2019-04-04T22:56:00.151Z,11.37
2019-04-04T22:58:32.440Z,11.50
2019-04-04T23:01:05.451Z,13.20
2019-04-04T23:03:38.670Z,11.63
2019-04-04T23:06:07.852Z,11.17
2019-04-04T23:08:37.092Z,11.30
2019-04-04T23:11:07.989Z,12.17
2019-04-04T23:13:37.119Z,9.37
2019-04-04T23:16:06.301Z,9.90
2019-04-04T23:18:35.504Z,13.47
2019-04-04T23:21:04.778Z,11.73
2019-04-04T23:23:34.179Z,12.73
2019-04-04T23:26:03.531Z,12.97
2019-04-04T23:28:32.742Z,9.27
2019-04-04T23:31:01.925Z,11.67
2019-04-04T23:33:31.048Z,11.57
2019-04-04T23:36:00.270Z,10.10
2019-04-04T23:38:29.400Z,9.63
2019-04-04T23:40:58.639Z,11.77
2019-04-04T23:43:27.854Z,10.13
2019-04-04T23:45:57.066Z,10.17
2019-04-04T23:48:26.385Z,9.70
2019-04-04T23:50:55.778Z,10.70
2019-04-04T23:53:24.963Z,10.87
2019-04-04T23:55:54.117Z,8.33
2019-04-04T23:58:23.342Z,11.13
